Центральная Азия

ЗЦ Центральной Азии - "Азия-Центр" включает в себя пять республик: Казахстан, Кыргызстан, Таджикистан, Туркменистан и Узбекистан.

Зональный Центр обслуживает все аэропорты Центральной Азии по принципу "Top-down"

ЗЦ включает в себя РПИ Актобе, Алматы, Астаны, Ашхабада, Бишкека, Дашогуза, Душанбе, Оша, Самарканда, Ташкента, Туркменабата, Туркменбаши и Шымкента

В сети ВАТСИМ обслуживание воздушного движения над территорией ЗЦ Центральной Азии осуществляет позиция RU-CEN_FSS, позывной "Азия-Центр", частота 132.850.

Лого Центральная Азия
Руководство

Evgeny Vygornitsky

Куратор
FSS региона
Обозначение
RU-CEN_FSS
Позывной
Азия-Центр
Частота
132.850
Примечание
Top-down
Инструкторы региона
Dmitriy Bannov (Instructor)
Evgeny Vygornitsky (Supervisor)
Sergey Balandin (Senior Instructor)
Vitaliy Alekseyev (Instructor)
Включает в себя

РПИ Актобе
РПИ Алматы
РПИ Ашхабад
РПИ Бишкек
РПИ Дашогуз
РПИ Душанбе
РПИ Нур-Султан
РПИ Ош
РПИ Самарканд
РПИ Ташкент
РПИ Туркменабат
РПИ Туркменбаши
РПИ Шымкент

Диспетчеры региона

Диспетчер Рейтинг Допуски *
Dmitriy Bannov Instructor UAAA_CTR , UACN_CTR
Vitaliy Alekseyev Instructor UTSD_CTR , UTTR_CTR
Alexandr Sokolov Student 2 UAAA_TWR, UACC_TWR
Alikhan Aidarbek Student UAAA_TWR, UACC_TWR
Arman Maxatov Student 2 UACC_TWR, UTTT_TWR
Artem Kuzmenko Student UAAA_GND, UACC_GND
begench atayev Student 2 UTAA_GND
Kirill Ardatov Student 2 UACC_TWR
Sarsenov Shadiyar Student UACC_GND
Timur Gilmanov Student UTTT_GND

Аэропорты региона

ICAO Город Название Погода
UAAA Алматы Алматы UAAA 100830Z 02004MPS 5000 BR FEW100 M09/M13 Q1039 NOSIG
UCFM Бишкек Манас UCFM 100830Z 35002MPS 8000 NSC M06/M11 Q1036 NOSIG
UAKK Караганда Караганда UAKK 100830Z 24007MPS 9999 FEW012 BKN048 M17/M20 Q1038 NOSIG RMK QFE731/0974
UACC Нур-Султан Нур-Султан UACC 100830Z 23006MPS CAVOK M17/M20 Q1038 NOSIG RMK QFE747/0996
UTTT Ташкент Ташкент UTTT 100830Z VRB02KT 2300 BR NSC M02/M07 Q1034 R08L/CLRD70 NOSIG
UATT Актобе Актобе UATT 100830Z 12003MPS CAVOK M15/M19 Q1042 NOSIG RMK QFE761/1015
UATG Атырау Атырау UATG 100830Z 12007MPS 6000 NSC M07/M17 Q1038 NOSIG RMK QFE780/1041
UTAA Ашхабад Ашхабад UTAA 100800Z 09006KT 050V120 9999 BKN022 OVC100 01/M07 Q1031 R88/70D NOSIG
UTSB Бухара Бухара UTSB 100830Z 02004KT 340V080 CAVOK 02/M07 Q1032 R01/CLRD70 NOSIG
UTAT Дашогуз Дашогуз UTAT 100800Z 10014KT CAVOK M04/M16 Q1038 R08/CLRD70 NOSIG
UTDD Душанбе Душанбе UTDD 100830Z VRB01MPS 1700 BR FU NSC 04/00 Q1027 R09/D NOSIG RMK QFE701/0935
UAKD Жезказган Жезказган UAKD 100830Z 33002MPS 300V360 CAVOK M13/M18 Q1041 NOSIG RMK QFE746/0995
UACK Кокшетау Кокшетау UACK 100830Z 28008MPS CAVOK M10/M16 Q1034 NOSIG RMK QFE751/1002
UAUU Костанай Костанай UAUU 100830Z 15003MPS CAVOK M18/M23 Q1038 NOSIG RMK QFE761/1015
UTAM Мары Мары UTAM 100800Z 00000KT CAVOK 01/M02 Q1034 R88/CLRD70 NOSIG
UCFO Ош Ош UCFO 100830Z VRB01MPS 3800 BR OVC008 M03/M04 Q1031 NOSIG
UASP Павлодар Павлодар UASP 100830Z 23006MPS CAVOK M13/M17 Q1035 NOSIG RMK QFE764/1019
UACP Петропавловск Петропавловск UACP 100830Z 27004MPS 6000 -SHSN BKN030CB M10/M13 Q1033 NOSIG RMK QFE762/1016
UTSS Самарканд Самарканд UTSS 100830Z 05004KT 010V100 9999 NSC 00/M06 Q1028 R09/70D NOSIG
UTST Термез Термез UTST 100830Z VRB02KT 0800 R25/0800 FG VV002 01/M00 Q1030 R25/CLRD70 NOSIG RMK BASE200
UTAV Туркменабад Туркменабат UTAV 100800Z VRB02KT 8000 NSC M02/M09 Q1032 R31/CLRD70 NOSIG
UTAK Туркменбаши Туркменбаши UTAK 100800Z 10010KT CAVOK 05/M06 Q1029 R16R/CLRD70 NOSIG
UARR Уральск Уральск UARR 100830Z 17008MPS CAVOK M09/M16 Q1038 NOSIG RMK QFE775/1033
UTNU Ургенч Ургенч UTNU 100830Z 07014KT CAVOK M04/M17 Q1037 R13/CLRD70 NOSIG
UTDL Худжанд Худжанд UTDL 100830Z 07008MPS 7000 NSC 02/M03 Q1032 R08/890432 NOSIG RMK QFE735/0980
UAII Шымкент Шымкент UAII 100830Z 25002MPS 7000 NSC M05/M11 Q1034 NOSIG RMK QFE737/0983
UTFA Андижан Андижан UTFA 100730Z VRB02KT 3700 BR BKN013 M01/M04 Q1035 R88/09//70
UCFL Иссык-Куль Иссык-Куль UCFL 100800Z 25010G15MPS 9999 NSC 01/M30 Q1026
UCFP Каракол Каракол
UTSK Карши Карши-Ханабад UTSK 100830Z 34004KT 300V360 CAVOK 05/M02 Q1030 R16/CLRD70
UTSA Навои Навои UTSA 100830Z 05004KT 010V080 7000 NSC 03/M06 Q1031 R07/CLRD70 NOSIG
UTFN Наманган Наманган UTFN 100830Z 00000KT 1700 BR OVC007 M02/M04 Q1034 R28/CLRD70 NOSIG
UTNN Нукус Нукус UTNN 100830Z 06010KT CAVOK M08/M18 Q1039 R15/CLRD60 NOSIG
UTFF Фергана Фергана UTFF 100830Z 13002KT 6000 BKN021 00/M05 Q1032 R18/CLRD70